createdAt,value
2024-04-15T00:01:10.739Z,157852.69
2024-04-15T00:03:57.767Z,157840.72
2024-04-15T00:06:27.057Z,157823.44
2024-04-15T00:08:55.992Z,157855.38
2024-04-15T00:11:24.400Z,157843.41
2024-04-15T00:13:53.207Z,157848.72
2024-04-15T00:16:21.842Z,157838.06
2024-04-15T00:18:51.149Z,157858.00
2024-04-15T00:21:19.067Z,157844.72
2024-04-15T00:23:48.368Z,157792.91
2024-04-15T00:26:16.310Z,157826.09
2024-04-15T00:28:45.458Z,157828.78
2024-04-15T00:31:13.860Z,157822.13
2024-04-15T00:33:44.257Z,157807.53
2024-04-15T00:36:12.518Z,157791.53
2024-04-15T00:38:41.356Z,157766.31
2024-04-15T00:41:09.642Z,157731.75
2024-04-15T00:43:47.268Z,157709.19
2024-04-15T00:46:16.376Z,157679.97
2024-04-15T00:48:46.248Z,157626.81
2024-04-15T00:51:15.287Z,157630.81
2024-04-15T00:53:46.176Z,157616.16
2024-04-15T00:56:14.482Z,157620.16
2024-04-15T00:58:44.505Z,157613.53
2024-04-15T01:01:14.992Z,157573.66
2024-04-15T01:03:45.526Z,157577.66
2024-04-15T01:06:14.669Z,157492.69
2024-04-15T01:08:43.379Z,157535.16
2024-04-15T01:11:13.934Z,157528.53
2024-04-15T01:13:42.747Z,157517.88
2024-04-15T01:16:11.346Z,157503.28
2024-04-15T01:18:40.254Z,157499.31
2024-04-15T01:21:09.972Z,157480.72
2024-04-15T01:23:50.448Z,157476.75
2024-04-15T01:26:19.299Z,157450.19
2024-04-15T01:28:48.395Z,157435.59
2024-04-15T01:31:16.605Z,157427.63
2024-04-15T01:33:45.476Z,157426.28
2024-04-15T01:36:13.826Z,157407.72
2024-04-15T01:38:43.007Z,157370.53
2024-04-15T01:41:10.913Z,157402.41
2024-04-15T01:43:39.713Z,157374.53
2024-04-15T01:46:08.004Z,157321.41
2024-04-15T01:48:36.948Z,157385.13
2024-04-15T01:51:05.497Z,157366.56
2024-04-15T01:53:34.514Z,157350.66
2024-04-15T01:56:03.017Z,157357.25
2024-04-15T01:58:31.732Z,157350.66
2024-04-15T02:01:11.772Z,157361.25
2024-04-15T02:03:41.552Z,157351.97
2024-04-15T02:06:11.714Z,157337.38
2024-04-15T02:08:41.049Z,157341.31
2024-04-15T02:11:09.782Z,157337.38
2024-04-15T02:13:38.726Z,157301.56
2024-04-15T02:16:07.472Z,157280.31
2024-04-15T02:18:36.381Z,157286.91
2024-04-15T02:21:04.669Z,157281.63
2024-04-15T02:23:33.945Z,157257.72
2024-04-15T02:26:02.686Z,157261.72
2024-04-15T02:28:31.237Z,157281.63
2024-04-15T02:30:59.741Z,157221.91
2024-04-15T02:33:28.987Z,157289.59
2024-04-15T02:35:57.247Z,157276.31
2024-04-15T02:38:25.886Z,157316.16
2024-04-15T02:40:56.842Z,157321.41
2024-04-15T02:43:25.955Z,157351.97
2024-04-15T02:45:53.839Z,157358.63
2024-04-15T02:48:22.629Z,157369.19
2024-04-15T02:50:51.139Z,157325.41
2024-04-15T02:53:19.972Z,157326.75
2024-04-15T02:55:48.432Z,157424.97
2024-04-15T02:58:17.137Z,157459.47
2024-04-15T03:00:45.189Z,157499.31
2024-04-15T03:03:14.532Z,157535.16
2024-04-15T03:05:43.164Z,157564.38
2024-04-15T03:08:12.161Z,157581.66
2024-04-15T03:10:40.385Z,157617.53
2024-04-15T03:13:09.300Z,157638.78
2024-04-15T03:15:37.818Z,157662.66
2024-04-15T03:18:06.589Z,157693.22
2024-04-15T03:20:35.303Z,157690.56
2024-04-15T03:23:04.768Z,157694.56
2024-04-15T03:25:33.219Z,157703.88
2024-04-15T03:28:01.781Z,157669.31
2024-04-15T03:30:30.509Z,157717.16
2024-04-15T03:32:59.322Z,157743.72
2024-04-15T03:35:27.813Z,157766.31
2024-04-15T03:37:56.549Z,157772.97
2024-04-15T03:40:25.294Z,157775.59
2024-04-15T03:42:54.780Z,157790.22
2024-04-15T03:45:22.971Z,157787.56
2024-04-15T03:47:52.028Z,157795.53
2024-04-15T03:50:22.336Z,157776.91
2024-04-15T03:52:56.124Z,157772.97
2024-04-15T03:55:24.327Z,157757.03
2024-04-15T03:57:54.717Z,157788.91
2024-04-15T04:00:23.344Z,157860.66
2024-04-15T04:02:53.786Z,157860.66
2024-04-15T04:05:22.541Z,157896.53
2024-04-15T04:07:51.387Z,157917.81
2024-04-15T04:10:21.116Z,157927.16
2024-04-15T04:12:50.451Z,157943.09
2024-04-15T04:15:19.120Z,157957.69
2024-04-15T04:17:48.080Z,157967.00
2024-04-15T04:20:16.522Z,157978.97
2024-04-15T04:22:45.564Z,157982.97
2024-04-15T04:25:13.947Z,157980.28
2024-04-15T04:27:43.222Z,158013.56
2024-04-15T04:30:11.994Z,158044.13
2024-04-15T04:32:41.883Z,158040.16
2024-04-15T04:35:11.185Z,158038.84
2024-04-15T04:37:42.859Z,158036.16
2024-04-15T04:40:11.553Z,158065.41
2024-04-15T04:42:44.401Z,158076.06
2024-04-15T04:45:12.759Z,158086.69
2024-04-15T04:47:41.377Z,158090.69
2024-04-15T04:50:09.622Z,158102.66
2024-04-15T04:52:38.502Z,158111.97
2024-04-15T04:55:06.910Z,158102.66
2024-04-15T04:57:36.288Z,158126.59
2024-04-15T05:00:04.978Z,158131.94
2024-04-15T05:02:34.111Z,158131.94
2024-04-15T05:05:02.188Z,158129.28
2024-04-15T05:07:31.022Z,158127.91
2024-04-15T05:09:59.430Z,158147.94
2024-04-15T05:12:28.766Z,158166.56
2024-04-15T05:14:56.695Z,158167.88
2024-04-15T05:17:25.608Z,158149.25
2024-04-15T05:19:53.876Z,158181.19
2024-04-15T05:22:22.665Z,158170.53
2024-04-15T05:24:51.053Z,158187.84
2024-04-15T05:27:19.754Z,158194.50
2024-04-15T05:29:48.092Z,158195.84
2024-04-15T05:32:17.172Z,158214.47
2024-04-15T05:34:45.635Z,158214.47
2024-04-15T05:37:14.932Z,158241.03
2024-04-15T05:39:45.105Z,158259.69
2024-04-15T05:42:15.333Z,158288.97
2024-04-15T05:44:43.920Z,158323.56
2024-04-15T05:47:12.795Z,158342.22
2024-04-15T05:49:40.751Z,158359.50
2024-04-15T05:52:09.471Z,158399.44
2024-04-15T05:54:37.966Z,158416.72
2024-04-15T05:57:06.661Z,158422.06
2024-04-15T05:59:35.229Z,158438.06
2024-04-15T06:02:03.917Z,158446.06
2024-04-15T06:04:37.115Z,158487.34
2024-04-15T06:07:05.487Z,158496.66
2024-04-15T06:09:34.567Z,158519.28
2024-04-15T06:12:02.703Z,158496.66
2024-04-15T06:14:32.053Z,158531.28
2024-04-15T06:17:02.658Z,158564.59
2024-04-15T06:19:32.023Z,158563.22
2024-04-15T06:22:02.548Z,158551.25
2024-04-15T06:24:32.732Z,158556.53
2024-04-15T06:27:01.263Z,158576.53
2024-04-15T06:29:30.306Z,158589.84
2024-04-15T06:31:58.680Z,158596.50
2024-04-15T06:34:31.141Z,158597.84
2024-04-15T06:37:00.573Z,158624.50
2024-04-15T06:39:30.488Z,158621.84
2024-04-15T06:41:59.040Z,158623.16
2024-04-15T06:44:28.462Z,158623.16
2024-04-15T06:46:57.373Z,158597.84
2024-04-15T06:49:27.014Z,158592.50
2024-04-15T06:51:56.350Z,158603.19
2024-04-15T06:54:25.099Z,158615.19
2024-04-15T06:56:53.122Z,158613.84
2024-04-15T06:59:22.534Z,158603.19
2024-04-15T07:01:51.334Z,158629.84
2024-04-15T07:04:20.785Z,158640.47
2024-04-15T07:06:49.634Z,158631.16
2024-04-15T07:09:20.321Z,158668.44
2024-04-15T07:11:48.868Z,158697.75
2024-04-15T07:14:17.532Z,158701.75
2024-04-15T07:16:46.052Z,158711.06
2024-04-15T07:19:16.614Z,158728.41
2024-04-15T07:21:45.017Z,158731.06
2024-04-15T07:24:13.983Z,158735.06
2024-04-15T07:26:43.107Z,158732.38
2024-04-15T07:29:12.502Z,158745.72
2024-04-15T07:31:41.743Z,158712.44
2024-04-15T07:34:11.431Z,158764.38
2024-04-15T07:36:40.290Z,158799.09
2024-04-15T07:39:11.015Z,158813.75
2024-04-15T07:41:39.726Z,158819.09
2024-04-15T07:44:08.673Z,158820.41
2024-04-15T07:46:36.956Z,158808.41
2024-04-15T07:49:06.439Z,158825.75
2024-04-15T07:51:35.391Z,158857.72
2024-04-15T07:54:04.974Z,158857.72
2024-04-15T07:56:33.467Z,158893.69
2024-04-15T07:59:03.125Z,158896.41
2024-04-15T08:01:32.031Z,158880.38
2024-04-15T08:04:01.603Z,158876.41
2024-04-15T08:06:30.150Z,158919.03
2024-04-15T08:08:59.655Z,158921.69
2024-04-15T08:11:28.601Z,158908.34
2024-04-15T08:13:57.490Z,158872.38
2024-04-15T08:16:25.859Z,158917.72
2024-04-15T08:18:55.583Z,158977.69
2024-04-15T08:21:23.982Z,158995.06
2024-04-15T08:23:54.457Z,159012.38
2024-04-15T08:26:24.013Z,159105.69
2024-04-15T08:28:52.700Z,159163.09
2024-04-15T08:31:21.548Z,159119.03
2024-04-15T08:33:51.536Z,159187.09
2024-04-15T08:36:20.346Z,159151.06
2024-04-15T08:38:49.496Z,159215.09
2024-04-15T08:41:28.440Z,159160.41
2024-04-15T08:44:05.784Z,159264.47
2024-04-15T08:46:40.111Z,159285.88
2024-04-15T08:49:10.010Z,159267.13
2024-04-15T08:51:38.563Z,159325.91
2024-04-15T08:54:08.824Z,159331.22
2024-04-15T08:56:39.337Z,159335.25
2024-04-15T09:01:37.996Z,159244.44
2024-04-15T09:04:08.917Z,159271.19
2024-04-15T09:06:37.271Z,159324.59
2024-04-15T09:09:06.577Z,159405.97
2024-04-15T09:11:36.547Z,159420.66
2024-04-15T09:14:05.883Z,159393.97
2024-04-15T09:16:34.256Z,159459.41
2024-04-15T09:19:08.537Z,159400.63
2024-04-15T09:21:39.080Z,159381.97
2024-04-15T09:24:12.256Z,159340.59
2024-04-15T09:26:43.037Z,159304.56
2024-04-15T09:29:13.222Z,159304.56
2024-04-15T09:31:41.854Z,159329.91
2024-04-15T09:34:11.557Z,159343.25
2024-04-15T09:36:50.959Z,159412.66
2024-04-15T09:39:21.960Z,159518.13
2024-04-15T09:41:50.976Z,159592.94
2024-04-15T09:44:22.185Z,159647.66
2024-04-15T09:46:51.029Z,159599.63
2024-04-15T09:49:22.910Z,159611.59
2024-04-15T09:51:53.479Z,159619.59
2024-04-15T09:54:25.694Z,159682.38
2024-04-15T09:56:57.402Z,159765.28
2024-04-15T09:59:27.943Z,159725.19
2024-04-15T10:01:59.320Z,159758.59
2024-04-15T10:04:33.180Z,159825.41
2024-04-15T10:07:04.917Z,159801.34
2024-04-15T10:09:33.814Z,159758.59
2024-04-15T10:12:02.470Z,159721.19
2024-04-15T10:14:31.832Z,159674.38
2024-04-15T10:17:00.305Z,159689.13
2024-04-15T10:19:34.293Z,159755.94
2024-04-15T10:22:03.626Z,159798.69
2024-04-15T10:24:33.249Z,159808.03
2024-04-15T10:27:04.954Z,159852.13
2024-04-15T10:29:39.635Z,159893.53
2024-04-15T10:32:10.083Z,159884.19
2024-04-15T10:34:45.898Z,159870.84
2024-04-15T10:37:14.572Z,159896.25
2024-04-15T10:39:47.906Z,159802.66
2024-04-15T10:42:17.357Z,159828.06
2024-04-15T10:44:46.227Z,159820.06
2024-04-15T10:47:14.845Z,159810.69
2024-04-15T10:49:43.696Z,159792.00
2024-04-15T10:52:12.378Z,159873.50
2024-04-15T10:54:42.669Z,159862.81
2024-04-15T10:57:11.252Z,159878.84
2024-04-15T10:59:42.530Z,159870.84
2024-04-15T11:02:11.905Z,159860.13
2024-04-15T11:04:41.519Z,159888.19
2024-04-15T11:07:10.147Z,159886.84
2024-04-15T11:09:39.494Z,159916.25
2024-04-15T11:12:08.673Z,159932.34
2024-04-15T11:14:38.332Z,159905.59
2024-04-15T11:17:09.462Z,159858.78
2024-04-15T11:19:39.057Z,159852.13
2024-04-15T11:22:09.306Z,159869.50
2024-04-15T11:24:39.127Z,159865.47
2024-04-15T11:27:10.727Z,159885.53
2024-04-15T11:29:51.680Z,159916.25
2024-04-15T11:32:26.308Z,159937.63
2024-04-15T11:34:56.604Z,159964.38
2024-04-15T11:37:25.178Z,160067.41
2024-04-15T11:39:55.225Z,159995.16
2024-04-15T11:42:32.435Z,159985.78
2024-04-15T11:45:07.182Z,159972.41
2024-04-15T11:47:35.624Z,159960.41
2024-04-15T11:50:05.354Z,160021.88
2024-04-15T11:52:34.790Z,160088.78
2024-04-15T11:55:04.701Z,160084.75
2024-04-15T11:57:35.005Z,160094.16
2024-04-15T12:00:03.906Z,160080.78
2024-04-15T12:02:45.317Z,160120.84
2024-04-15T12:05:15.052Z,160056.69
2024-04-15T12:07:44.585Z,159937.63
2024-04-15T12:10:14.465Z,159890.91
2024-04-15T12:12:43.692Z,159884.19
2024-04-15T12:15:13.534Z,159921.63
2024-04-15T12:17:41.948Z,159948.34
2024-04-15T12:20:11.173Z,160033.91
2024-04-15T12:22:39.409Z,160068.72
2024-04-15T12:25:10.037Z,160103.50
2024-04-15T12:27:40.042Z,160171.72
2024-04-15T12:30:12.939Z,160157.00
2024-04-15T12:32:42.085Z,160104.81
2024-04-15T12:35:12.387Z,160063.38
2024-04-15T12:37:41.122Z,160029.94
2024-04-15T12:40:10.097Z,159985.78
2024-04-15T12:42:38.290Z,159960.41
2024-04-15T12:45:07.700Z,159914.94
2024-04-15T12:47:36.501Z,159888.19
2024-04-15T12:50:06.145Z,159902.94
2024-04-15T12:52:35.012Z,159910.94
2024-04-15T12:55:04.469Z,159948.34
2024-04-15T12:57:33.098Z,159931.00
2024-04-15T13:00:02.003Z,159916.25
2024-04-15T13:02:30.764Z,159918.97
2024-04-15T13:05:00.644Z,159969.75
2024-04-15T13:07:29.055Z,159951.00
2024-04-15T13:09:58.844Z,159910.94
2024-04-15T13:12:27.386Z,159924.31
2024-04-15T13:14:56.422Z,159916.25
2024-04-15T13:17:24.506Z,159905.59
2024-04-15T13:19:53.778Z,159857.47
2024-04-15T13:22:21.755Z,159888.19
2024-04-15T13:24:50.725Z,159828.06
2024-04-15T13:27:19.159Z,159868.19
2024-04-15T13:29:47.791Z,159886.84
2024-04-15T13:32:19.770Z,159902.94
2024-04-15T13:34:50.007Z,159889.56
2024-04-15T13:37:18.829Z,159894.88
2024-04-15T13:39:47.762Z,159932.34
2024-04-15T13:42:16.189Z,159931.00
2024-04-15T13:44:45.368Z,159932.34
2024-04-15T13:47:14.119Z,159937.63
2024-04-15T13:49:43.011Z,159925.66
2024-04-15T13:52:11.330Z,159904.25
2024-04-15T13:54:40.308Z,159908.25
2024-04-15T13:57:10.565Z,159910.94
2024-04-15T13:59:41.014Z,159921.63
2024-04-15T14:02:10.146Z,159917.63
2024-04-15T14:04:39.412Z,159917.63
2024-04-15T14:07:08.094Z,159897.56
2024-04-15T14:09:37.148Z,159917.63
2024-04-15T14:12:07.379Z,159944.31
2024-04-15T14:14:36.907Z,159941.66
2024-04-15T14:17:11.307Z,159898.91
2024-04-15T14:19:41.075Z,159921.63
2024-04-15T14:22:09.607Z,159909.56
2024-04-15T14:24:42.083Z,159939.00
2024-04-15T14:27:10.887Z,159925.66
2024-04-15T14:29:40.610Z,159925.66
2024-04-15T14:32:08.951Z,159945.72
2024-04-15T14:34:37.609Z,159959.03
2024-04-15T14:37:06.582Z,159918.97
2024-04-15T14:39:35.601Z,159955.03
2024-04-15T14:42:03.978Z,159993.78
2024-04-15T14:44:32.668Z,159956.38
2024-04-15T14:47:03.543Z,159939.00
2024-04-15T14:49:32.734Z,159945.72
2024-04-15T14:52:01.225Z,159955.03
2024-04-15T14:54:30.151Z,159914.94
2024-04-15T14:56:59.010Z,159908.25
2024-04-15T14:59:29.002Z,159944.31
2024-04-15T15:02:01.233Z,159933.66
2024-04-15T15:04:30.757Z,159926.97
2024-04-15T15:06:59.785Z,159941.66
2024-04-15T15:09:29.077Z,159908.25
2024-04-15T15:11:57.558Z,159933.66
2024-04-15T15:14:26.530Z,159922.94
2024-04-15T15:16:55.113Z,159908.25
2024-04-15T15:19:24.171Z,159882.88
2024-04-15T15:21:52.766Z,159870.84
2024-04-15T15:24:21.959Z,159888.19
2024-04-15T15:26:50.710Z,159858.78
2024-04-15T15:29:20.151Z,159830.72
2024-04-15T15:31:49.115Z,159802.66
2024-04-15T15:34:18.356Z,159699.81
2024-04-15T15:36:46.767Z,159743.91
2024-04-15T15:39:15.698Z,159745.22
2024-04-15T15:41:43.957Z,159722.53
2024-04-15T15:44:12.982Z,159702.47
2024-04-15T15:46:42.256Z,159647.66
2024-04-15T15:49:11.435Z,159637.00
2024-04-15T15:51:41.463Z,159661.00
2024-04-15T15:54:10.325Z,159647.66
2024-04-15T15:56:39.618Z,159642.34
2024-04-15T15:59:09.238Z,159635.66
2024-04-15T16:01:39.215Z,159631.63
2024-04-15T16:04:08.503Z,159623.63
2024-04-15T16:06:37.065Z,159592.94
2024-04-15T16:09:06.439Z,159578.19
2024-04-15T16:11:39.913Z,159587.56
2024-04-15T16:14:15.112Z,159591.56
2024-04-15T16:16:43.557Z,159620.97
2024-04-15T16:19:13.755Z,159642.34
2024-04-15T16:21:42.771Z,159662.34
2024-04-15T16:24:11.658Z,159657.03
2024-04-15T16:26:40.310Z,159681.06
2024-04-15T16:29:10.261Z,159686.47
2024-04-15T16:31:38.594Z,159675.69
2024-04-15T16:34:08.232Z,159717.16
2024-04-15T16:36:36.892Z,159758.59
2024-04-15T16:39:06.280Z,159745.22
2024-04-15T16:41:34.776Z,159699.81
2024-04-15T16:44:03.805Z,159713.19
2024-04-15T16:46:32.465Z,159698.50
2024-04-15T16:49:01.832Z,159683.72
2024-04-15T16:51:29.795Z,159661.00
2024-04-15T16:53:58.404Z,159624.94
2024-04-15T16:56:27.004Z,159590.22
2024-04-15T16:58:56.119Z,159615.63
2024-04-15T17:01:24.489Z,159600.94
2024-04-15T17:03:53.327Z,159587.56
2024-04-15T17:06:21.546Z,159590.22
2024-04-15T17:08:50.355Z,159592.94
2024-04-15T17:11:19.597Z,159578.19
2024-04-15T17:13:48.789Z,159554.19
2024-04-15T17:16:17.403Z,159523.50
2024-04-15T17:18:46.227Z,159496.78
2024-04-15T17:21:16.341Z,159483.41
2024-04-15T17:23:45.435Z,159454.06
2024-04-15T17:26:13.913Z,159452.72
2024-04-15T17:28:42.664Z,159426.00
2024-04-15T17:31:11.304Z,159426.00
2024-04-15T17:33:40.543Z,159410.00
2024-04-15T17:36:09.469Z,159376.63
2024-04-15T17:38:38.329Z,159365.94
2024-04-15T17:41:06.805Z,159356.59
2024-04-15T17:43:35.824Z,159305.91
2024-04-15T17:46:04.564Z,159284.56
2024-04-15T17:48:34.246Z,159237.78
2024-04-15T17:51:06.096Z,159241.81
2024-04-15T17:53:35.224Z,159221.78
2024-04-15T17:56:03.879Z,159200.44
2024-04-15T17:58:32.606Z,159189.75
2024-04-15T18:01:03.080Z,159156.44
2024-04-15T18:03:32.703Z,159136.41
2024-04-15T18:06:01.376Z,159135.09
2024-04-15T18:08:30.178Z,159116.41
2024-04-15T18:10:58.994Z,159113.75
2024-04-15T18:13:28.540Z,159113.75
2024-04-15T18:15:57.981Z,159092.41
2024-04-15T18:18:29.738Z,159103.06
2024-04-15T18:21:00.247Z,159067.03
2024-04-15T18:23:29.044Z,159088.38
2024-04-15T18:25:57.146Z,159088.38
2024-04-15T18:28:26.669Z,159097.69
2024-04-15T18:30:55.211Z,159112.38
2024-04-15T18:33:23.883Z,159111.03
2024-04-15T18:35:52.702Z,159105.69
2024-04-15T18:38:21.932Z,159108.41
2024-04-15T18:40:50.340Z,159129.75
2024-04-15T18:43:19.284Z,159121.75
2024-04-15T18:45:48.511Z,159156.44
2024-04-15T18:48:17.550Z,159140.38
2024-04-15T18:50:46.461Z,159173.75
2024-04-15T18:53:15.968Z,159156.44
2024-04-15T18:55:44.364Z,159160.41
2024-04-15T18:58:13.127Z,159184.44
2024-04-15T19:00:41.898Z,159179.09
2024-04-15T19:03:11.776Z,159188.41
2024-04-15T19:05:40.604Z,159161.72
2024-04-15T19:08:12.476Z,159168.41
2024-04-15T19:10:41.991Z,159209.75
2024-04-15T19:13:12.185Z,159212.47
2024-04-15T19:15:40.423Z,159189.75
2024-04-15T19:18:09.903Z,159207.09
2024-04-15T19:20:38.503Z,159203.09
2024-04-15T19:23:07.660Z,159200.44
2024-04-15T19:25:35.973Z,159175.06
2024-04-15T19:28:05.578Z,159199.13
2024-04-15T19:30:38.052Z,159116.41
2024-04-15T19:33:10.807Z,159149.75
2024-04-15T19:35:48.313Z,159165.75
2024-04-15T19:38:20.579Z,159147.06
2024-04-15T19:40:49.106Z,159176.41
2024-04-15T19:43:17.650Z,159216.44
2024-04-15T19:45:46.520Z,159196.41
2024-04-15T19:48:15.644Z,159192.44
2024-04-15T19:50:44.826Z,159193.75
2024-04-15T19:53:14.089Z,159177.78
2024-04-15T19:55:43.347Z,159085.75
2024-04-15T19:58:13.402Z,159149.75
2024-04-15T20:00:41.787Z,159095.06
2024-04-15T20:03:13.378Z,159127.03
2024-04-15T20:05:42.750Z,159137.72
2024-04-15T20:08:20.595Z,159155.06
2024-04-15T20:10:51.145Z,159155.06
2024-04-15T20:13:20.739Z,159161.72
2024-04-15T20:15:52.045Z,159161.72
2024-04-15T20:18:43.708Z,159136.41
2024-04-15T20:21:12.051Z,159153.72
2024-04-15T20:23:41.027Z,159135.09
2024-04-15T20:26:10.033Z,159153.72
2024-04-15T20:28:44.421Z,159060.38
2024-04-15T20:31:12.935Z,159104.38
2024-04-15T20:33:41.751Z,159107.06
2024-04-15T20:36:11.486Z,159111.03
2024-04-15T20:38:42.903Z,159101.72
2024-04-15T20:41:11.693Z,159081.72
2024-04-15T20:43:40.665Z,159101.72
2024-04-15T20:46:09.785Z,159092.41
2024-04-15T20:48:38.892Z,159073.72
2024-04-15T20:51:07.257Z,159061.69
2024-04-15T20:53:36.551Z,159085.75
2024-04-15T20:56:05.266Z,159073.72
2024-04-15T20:58:34.033Z,159068.38
2024-04-15T21:01:04.812Z,159073.72
2024-04-15T21:03:34.481Z,159061.69
2024-04-15T21:06:03.126Z,159029.72
2024-04-15T21:08:32.272Z,159040.38
2024-04-15T21:11:00.736Z,159048.34
2024-04-15T21:13:29.833Z,159029.72
2024-04-15T21:15:58.354Z,159028.34
2024-04-15T21:18:27.072Z,159012.38
2024-04-15T21:20:55.673Z,159023.06
2024-04-15T21:23:24.352Z,159011.03
2024-04-15T21:25:53.007Z,159000.34
2024-04-15T21:28:22.080Z,158992.34
2024-04-15T21:30:50.727Z,158976.38
2024-04-15T21:33:21.137Z,158953.72
2024-04-15T21:35:49.346Z,158952.38
2024-04-15T21:38:18.231Z,158937.72
2024-04-15T21:40:46.032Z,158928.34
2024-04-15T21:43:16.823Z,158920.38
2024-04-15T21:45:46.801Z,158928.34
2024-04-15T21:48:15.943Z,158912.38
2024-04-15T21:50:43.950Z,158900.38
2024-04-15T21:53:13.856Z,158917.72
2024-04-15T21:55:42.066Z,158903.06
2024-04-15T21:58:10.716Z,158851.03
2024-04-15T22:00:39.407Z,158864.38
2024-04-15T22:03:09.122Z,158848.41
2024-04-15T22:05:38.392Z,158853.75
2024-04-15T22:08:07.355Z,158843.06
2024-04-15T22:10:36.422Z,158829.72
2024-04-15T22:13:05.546Z,158805.75
2024-04-15T22:15:34.093Z,158805.75
2024-04-15T22:18:03.160Z,158771.06
2024-04-15T22:20:31.522Z,158756.41
2024-04-15T22:23:01.197Z,158739.03
2024-04-15T22:25:30.416Z,158711.06
2024-04-15T22:28:00.669Z,158717.72
2024-04-15T22:30:28.937Z,158703.06
2024-04-15T22:32:58.458Z,158697.75
2024-04-15T22:35:26.730Z,158672.47
2024-04-15T22:37:55.429Z,158685.78
2024-04-15T22:40:23.865Z,158681.75
2024-04-15T22:42:52.924Z,158651.16
2024-04-15T22:45:21.218Z,158661.78
2024-04-15T22:47:49.763Z,158645.81
2024-04-15T22:50:18.530Z,158645.81
2024-04-15T22:52:47.490Z,158644.47
2024-04-15T22:55:15.840Z,158653.78
2024-04-15T22:57:44.440Z,158655.13
2024-04-15T23:00:13.234Z,158659.13
2024-04-15T23:02:42.002Z,158655.13
2024-04-15T23:05:10.508Z,158679.13
2024-04-15T23:07:41.179Z,158693.78
2024-04-15T23:10:09.740Z,158699.13
2024-04-15T23:12:38.559Z,158660.44
2024-04-15T23:15:07.214Z,158687.09
2024-04-15T23:17:36.640Z,158697.75
2024-04-15T23:20:05.506Z,158672.47
2024-04-15T23:22:34.906Z,158687.09
2024-04-15T23:25:04.070Z,158671.13
2024-04-15T23:27:32.736Z,158639.13
2024-04-15T23:30:01.081Z,158645.81
2024-04-15T23:32:30.119Z,158596.50
2024-04-15T23:34:58.559Z,158596.50
2024-04-15T23:37:27.180Z,158571.19
2024-04-15T23:39:55.396Z,158564.59
2024-04-15T23:42:24.648Z,158555.22
2024-04-15T23:45:11.948Z,158523.28
2024-04-15T23:47:59.337Z,158488.66
2024-04-15T23:50:46.493Z,158460.69
2024-04-15T23:53:33.837Z,158471.31
2024-04-15T23:56:21.035Z,158438.06
2024-04-15T23:58:49.848Z,158436.72
